This is the latest recevied weather packets stored in our database for station/object S56IAR-13. If no packets are shown the sender has not sent any weather packets the latest 10 day(s).
| Time | Temp. | Humidity | Pressure | Rain* | Wind** | Luminosity | Snow |
|---|---|---|---|---|---|---|---|
| 1777707734 | 14.44° C | 62% | 971.5 hPa | 0 mm | - | 477 W/m² | - |
| 1777706705 | 11.67° C | 71% | 971.6 hPa | 0 mm | - | 431 W/m² | - |
| 1777705804 | 10.56° C | 74% | 971.8 hPa | 0 mm | - | 48 W/m² | - |
| 1777704605 | 9.44° C | 78% | 971.9 hPa | 0 mm | - | 41 W/m² | - |
| 1777704004 | 7.78° C | 83% | 971.9 hPa | 0 mm | - | 43 W/m² | - |
| 1777703835 | 7.78° C | 86% | 971.8 hPa | 0 mm | - | 42 W/m² | - |
| 1777699204 | 3.33° C | 97% | 972.1 hPa | 0 mm | - | 29 W/m² | - |
| 1777698303 | 3.33° C | 97% | 972.3 hPa | 0 mm | - | 26 W/m² | - |
| 1777695604 | 2.78° C | 97% | 972.3 hPa | 0 mm | - | 13 W/m² | - |
| 1777695436 | 2.78° C | 97% | 972.3 hPa | 0 mm | - | 12 W/m² | - |
| 1777692604 | 2.78° C | 96% | 972 hPa | 0 mm | - | 0 W/m² | - |
| 1777689304 | 3.33° C | 96% | 972.3 hPa | 0 mm | - | 0 W/m² | - |
| 1777688534 | 3.33° C | 96% | 972.1 hPa | 0 mm | - | 0 W/m² | - |
| 1777688105 | 3.33° C | 96% | 972.3 hPa | 0 mm | - | 0 W/m² | - |
| 1777687503 | 3.33° C | 96% | 972.3 hPa | 0 mm | - | 0 W/m² | - |
| 1777683905 | 3.33° C | 95% | 972.3 hPa | 0 mm | - | 0 W/m² | - |
| 1777681205 | 3.89° C | 94% | 972.7 hPa | 0 mm | - | 0 W/m² | - |
| 1777681034 | 3.89° C | 94% | 972.7 hPa | 0 mm | - | 0 W/m² | - |
| 1777679703 | 3.89° C | 93% | 972.9 hPa | 0 mm | - | 0 W/m² | - |
| 1777677605 | 4.44° C | 93% | 972.7 hPa | 0 mm | - | 0 W/m² | - |
| 1777677303 | 4.44° C | 93% | 973.1 hPa | 0 mm | - | 0 W/m² | - |
| 1777677004 | 4.44° C | 93% | 973 hPa | 0 mm | - | 0 W/m² | - |
| 1777676236 | 4.44° C | 92% | 973 hPa | 0 mm | - | 0 W/m² | - |
| 1777673104 | 5° C | 91% | 973.2 hPa | 0 mm | - | 0 W/m² | - |
| 1777671005 | 5° C | 90% | 973.3 hPa | 0 mm | - | 0 W/m² | - |
* Rain latest hour (hover to see other rain measurements)
** Current wind speed in m/s (hover to see current wind gust speed)